sensor_id;sensor_type;location;lat;lon;timestamp;pressure;altitude;pressure_sealevel;temperature;humidity
54816;BME280;40715;55.752;37.884;2022-09-27T00:01:17;98669.91;;;10.24;69.75
54816;BME280;40715;55.752;37.884;2022-09-27T00:03:44;98669.00;;;10.25;69.76
54816;BME280;40715;55.752;37.884;2022-09-27T00:06:19;98679.47;;;10.27;70.19
54816;BME280;40715;55.752;37.884;2022-09-27T00:08:48;98674.09;;;10.30;69.96
54816;BME280;40715;55.752;37.884;2022-09-27T00:13:52;98675.97;;;10.26;69.82
54816;BME280;40715;55.752;37.884;2022-09-27T00:16:22;98679.53;;;10.25;69.75
54816;BME280;40715;55.752;37.884;2022-09-27T00:18:50;98678.03;;;10.18;69.96
54816;BME280;40715;55.752;37.884;2022-09-27T00:21:17;98674.56;;;10.16;69.79
54816;BME280;40715;55.752;37.884;2022-09-27T00:23:44;98674.63;;;10.14;69.78
54816;BME280;40715;55.752;37.884;2022-09-27T00:26:12;98682.38;;;10.19;69.66
54816;BME280;40715;55.752;37.884;2022-09-27T00:28:39;98679.09;;;10.12;69.73
54816;BME280;40715;55.752;37.884;2022-09-27T00:31:23;98689.41;;;10.18;69.95
54816;BME280;40715;55.752;37.884;2022-09-27T00:33:52;98686.84;;;10.17;69.94
54816;BME280;40715;55.752;37.884;2022-09-27T00:36:20;98682.53;;;10.14;70.16
54816;BME280;40715;55.752;37.884;2022-09-27T00:38:49;98683.34;;;10.16;70.32
54816;BME280;40715;55.752;37.884;2022-09-27T00:41:22;98685.09;;;10.16;70.40
54816;BME280;40715;55.752;37.884;2022-09-27T00:46:45;98677.16;;;10.17;70.20
54816;BME280;40715;55.752;37.884;2022-09-27T00:49:20;98678.94;;;10.17;70.27
54816;BME280;40715;55.752;37.884;2022-09-27T00:51:54;98679.09;;;10.12;70.04
54816;BME280;40715;55.752;37.884;2022-09-27T00:54:24;98687.78;;;10.14;70.18
54816;BME280;40715;55.752;37.884;2022-09-27T00:56:52;98674.06;;;10.06;70.01
54816;BME280;40715;55.752;37.884;2022-09-27T00:59:26;98691.38;;;10.13;70.10
54816;BME280;40715;55.752;37.884;2022-09-27T01:01:55;98689.69;;;10.11;69.97
54816;BME280;40715;55.752;37.884;2022-09-27T01:04:26;98687.13;;;10.09;70.04
54816;BME280;40715;55.752;37.884;2022-09-27T01:06:53;98692.44;;;10.08;70.07
54816;BME280;40715;55.752;37.884;2022-09-27T01:09:21;98690.81;;;10.04;70.00
54816;BME280;40715;55.752;37.884;2022-09-27T01:31:22;98673.91;;;9.85;70.10
54816;BME280;40715;55.752;37.884;2022-09-27T01:34:33;98677.28;;;9.89;70.10
54816;BME280;40715;55.752;37.884;2022-09-27T01:47:47;98664.28;;;9.84;70.00
54816;BME280;40715;55.752;37.884;2022-09-27T01:50:29;98672.09;;;9.88;70.10
54816;BME280;40715;55.752;37.884;2022-09-27T01:53:05;98670.47;;;9.83;70.04
54816;BME280;40715;55.752;37.884;2022-09-27T01:55:36;98667.00;;;9.81;70.37
54816;BME280;40715;55.752;37.884;2022-09-27T01:58:13;98667.78;;;9.85;70.42
54816;BME280;40715;55.752;37.884;2022-09-27T02:00:46;98674.78;;;9.84;70.47
54816;BME280;40715;55.752;37.884;2022-09-27T02:03:21;98676.53;;;9.85;70.56
54816;BME280;40715;55.752;37.884;2022-09-27T02:05:53;98667.91;;;9.80;70.48
54816;BME280;40715;55.752;37.884;2022-09-27T02:08:37;98680.00;;;9.86;70.33
54816;BME280;40715;55.752;37.884;2022-09-27T02:11:08;98681.13;;;9.79;70.24
54816;BME280;40715;55.752;37.884;2022-09-27T02:13:41;98685.66;;;9.75;70.26
54816;BME280;40715;55.752;37.884;2022-09-27T02:16:31;98686.50;;;9.76;70.49
54816;BME280;40715;55.752;37.884;2022-09-27T02:19:09;98678.66;;;9.74;70.71
54816;BME280;40715;55.752;37.884;2022-09-27T02:21:58;98686.50;;;9.76;70.49
54816;BME280;40715;55.752;37.884;2022-09-27T02:24:41;98682.34;;;9.68;70.67
54816;BME280;40715;55.752;37.884;2022-09-27T02:27:19;98690.31;;;9.67;70.71
54816;BME280;40715;55.752;37.884;2022-09-27T02:30:14;98695.34;;;9.73;70.58
54816;BME280;40715;55.752;37.884;2022-09-27T02:32:42;98676.41;;;9.63;70.79
54816;BME280;40715;55.752;37.884;2022-09-27T02:35:14;98684.13;;;9.68;70.83
54816;BME280;40715;55.752;37.884;2022-09-27T02:37:43;98672.00;;;9.64;70.84
54816;BME280;40715;55.752;37.884;2022-09-27T02:40:10;98681.34;;;9.73;71.00
54816;BME280;40715;55.752;37.884;2022-09-27T02:42:37;98681.34;;;9.73;70.77
54816;BME280;40715;55.752;37.884;2022-09-27T02:45:04;98682.34;;;9.68;70.98
54816;BME280;40715;55.752;37.884;2022-09-27T02:48:07;98683.13;;;9.72;70.84
54816;BME280;40715;55.752;37.884;2022-09-27T02:51:10;98684.88;;;9.72;70.66
54816;BME280;40715;55.752;37.884;2022-09-27T03:05:04;98687.72;;;9.65;70.63
54816;BME280;40715;55.752;37.884;2022-09-27T03:07:33;98688.63;;;9.64;71.08
54816;BME280;40715;55.752;37.884;2022-09-27T03:10:00;98689.47;;;9.66;70.98
54816;BME280;40715;55.752;37.884;2022-09-27T03:12:29;98686.88;;;9.65;70.79
54816;BME280;40715;55.752;37.884;2022-09-27T03:14:58;98656.84;;;9.45;71.02
54816;BME280;40715;55.752;37.884;2022-09-27T03:17:25;98690.25;;;9.68;70.96
54816;BME280;40715;55.752;37.884;2022-09-27T03:19:52;98692.88;;;9.68;71.08
54816;BME280;40715;55.752;37.884;2022-09-27T03:22:19;98700.56;;;9.75;71.07
54816;BME280;40715;55.752;37.884;2022-09-27T03:24:46;98696.97;;;9.77;71.21
54816;BME280;40715;55.752;37.884;2022-09-27T03:27:13;98694.34;;;9.77;71.14
54816;BME280;40715;55.752;37.884;2022-09-27T03:29:40;98702.88;;;9.84;71.00
54816;BME280;40715;55.752;37.884;2022-09-27T03:32:07;98695.91;;;9.83;71.17
54816;BME280;40715;55.752;37.884;2022-09-27T03:34:34;98708.94;;;9.86;71.07
54816;BME280;40715;55.752;37.884;2022-09-27T03:37:01;98702.13;;;9.80;71.18
54816;BME280;40715;55.752;37.884;2022-09-27T03:39:28;98706.19;;;9.91;70.85
54816;BME280;40715;55.752;37.884;2022-09-27T03:41:55;98701.97;;;9.85;70.87
54816;BME280;40715;55.752;37.884;2022-09-27T03:44:22;98695.53;;;9.94;70.90
54816;BME280;40715;55.752;37.884;2022-09-27T03:46:50;98709.44;;;9.97;70.97
54816;BME280;40715;55.752;37.884;2022-09-27T03:49:16;98712.00;;;10.00;70.95
54816;BME280;40715;55.752;37.884;2022-09-27T03:51:44;98696.50;;;9.91;70.88
54816;BME280;40715;55.752;37.884;2022-09-27T03:54:10;98716.13;;;10.08;70.80
54816;BME280;40715;55.752;37.884;2022-09-27T03:56:37;98713.38;;;10.11;71.08
54816;BME280;40715;55.752;37.884;2022-09-27T03:59:04;98711.44;;;10.16;70.97
54816;BME280;40715;55.752;37.884;2022-09-27T04:01:31;98711.28;;;10.21;70.91
54816;BME280;40715;55.752;37.884;2022-09-27T04:04:00;98720.56;;;10.31;70.98
54816;BME280;40715;55.752;37.884;2022-09-27T04:06:27;98722.81;;;10.43;70.91
54816;BME280;40715;55.752;37.884;2022-09-27T04:08:55;98720.59;;;10.56;70.88
54816;BME280;40715;55.752;37.884;2022-09-27T04:11:22;98712.06;;;10.73;71.02
54816;BME280;40715;55.752;37.884;2022-09-27T04:13:49;98715.81;;;10.90;70.93
54816;BME280;40715;55.752;37.884;2022-09-27T04:16:16;98714.25;;;11.08;70.74
54816;BME280;40715;55.752;37.884;2022-09-27T04:18:43;98716.38;;;11.20;70.52
54816;BME280;40715;55.752;37.884;2022-09-27T04:21:10;98709.78;;;11.32;70.60
54816;BME280;40715;55.752;37.884;2022-09-27T04:23:37;98723.22;;;11.48;70.54
54816;BME280;40715;55.752;37.884;2022-09-27T04:26:05;98720.03;;;11.62;70.54
54816;BME280;40715;55.752;37.884;2022-09-27T04:28:32;98717.09;;;11.90;71.09
54816;BME280;40715;55.752;37.884;2022-09-27T04:30:59;98722.13;;;12.37;71.12
54816;BME280;40715;55.752;37.884;2022-09-27T04:33:26;98727.13;;;13.21;71.74
54816;BME280;40715;55.752;37.884;2022-09-27T04:35:53;98724.03;;;14.21;71.41
54816;BME280;40715;55.752;37.884;2022-09-27T04:38:38;98731.59;;;15.60;70.93
54816;BME280;40715;55.752;37.884;2022-09-27T04:41:05;98737.59;;;16.83;69.60
54816;BME280;40715;55.752;37.884;2022-09-27T04:43:33;98734.84;;;17.41;67.26
54816;BME280;40715;55.752;37.884;2022-09-27T04:46:00;98737.09;;;17.62;65.95
54816;BME280;40715;55.752;37.884;2022-09-27T04:48:27;98737.06;;;18.29;66.08
54816;BME280;40715;55.752;37.884;2022-09-27T04:51:01;98731.00;;;19.04;64.14
54816;BME280;40715;55.752;37.884;2022-09-27T04:53:28;98721.44;;;19.26;62.77
54816;BME280;40715;55.752;37.884;2022-09-27T04:55:57;98701.03;;;19.73;61.78
54816;BME280;40715;55.752;37.884;2022-09-27T04:58:24;98735.41;;;20.96;59.53
54816;BME280;40715;55.752;37.884;2022-09-27T05:00:52;98739.78;;;21.08;55.55
54816;BME280;40715;55.752;37.884;2022-09-27T05:03:21;98738.78;;;20.64;54.28
54816;BME280;40715;55.752;37.884;2022-09-27T05:05:48;98742.63;;;20.37;54.12
54816;BME280;40715;55.752;37.884;2022-09-27T05:08:16;98743.56;;;20.83;54.62
54816;BME280;40715;55.752;37.884;2022-09-27T05:10:42;98744.50;;;22.99;52.79
54816;BME280;40715;55.752;37.884;2022-09-27T05:13:09;98748.91;;;25.53;47.96
54816;BME280;40715;55.752;37.884;2022-09-27T05:15:36;98754.34;;;27.81;43.09
54816;BME280;40715;55.752;37.884;2022-09-27T05:18:05;98740.81;;;29.44;38.55
54816;BME280;40715;55.752;37.884;2022-09-27T05:20:35;98754.56;;;30.06;34.85
54816;BME280;40715;55.752;37.884;2022-09-27T05:23:02;98757.34;;;30.59;33.28
54816;BME280;40715;55.752;37.884;2022-09-27T05:25:31;98757.31;;;31.42;31.29
54816;BME280;40715;55.752;37.884;2022-09-27T05:27:58;98755.69;;;32.21;29.52
54816;BME280;40715;55.752;37.884;2022-09-27T05:30:25;98750.63;;;32.96;28.32
54816;BME280;40715;55.752;37.884;2022-09-27T05:32:53;98758.50;;;33.54;26.80
54816;BME280;40715;55.752;37.884;2022-09-27T05:35:20;98752.97;;;33.89;25.76
54816;BME280;40715;55.752;37.884;2022-09-27T05:37:58;98741.91;;;34.37;24.34
54816;BME280;40715;55.752;37.884;2022-09-27T05:40:26;98752.78;;;35.11;23.45
54816;BME280;40715;55.752;37.884;2022-09-27T05:43:10;98745.81;;;35.81;22.53
54816;BME280;40715;55.752;37.884;2022-09-27T05:45:37;98752.13;;;36.45;21.56
54816;BME280;40715;55.752;37.884;2022-09-27T05:48:04;98758.06;;;36.67;21.17
54816;BME280;40715;55.752;37.884;2022-09-27T05:50:31;98755.09;;;36.43;20.12
54816;BME280;40715;55.752;37.884;2022-09-27T05:52:58;98758.50;;;36.39;20.51
54816;BME280;40715;55.752;37.884;2022-09-27T05:55:25;98752.47;;;36.23;20.11
54816;BME280;40715;55.752;37.884;2022-09-27T05:57:59;98754.00;;;36.95;19.34
54816;BME280;40715;55.752;37.884;2022-09-27T06:00:27;98756.38;;;37.84;18.79
54816;BME280;40715;55.752;37.884;2022-09-27T06:02:57;98753.44;;;38.52;18.15
54816;BME280;40715;55.752;37.884;2022-09-27T06:05:26;98732.13;;;39.06;17.62
54816;BME280;40715;55.752;37.884;2022-09-27T06:07:58;98735.97;;;39.69;17.03
54816;BME280;40715;55.752;37.884;2022-09-27T06:10:27;98746.09;;;40.27;16.44
54816;BME280;40715;55.752;37.884;2022-09-27T06:13:15;98726.69;;;40.72;16.61
54816;BME280;40715;55.752;37.884;2022-09-27T06:15:43;98744.44;;;41.16;15.56
54816;BME280;40715;55.752;37.884;2022-09-27T06:18:14;98740.66;;;41.44;14.72
54816;BME280;40715;55.752;37.884;2022-09-27T06:20:44;98740.94;;;41.92;14.66
54816;BME280;40715;55.752;37.884;2022-09-27T06:23:13;98740.81;;;42.36;14.09
54816;BME280;40715;55.752;37.884;2022-09-27T06:25:41;98726.41;;;42.72;14.08
54816;BME280;40715;55.752;37.884;2022-09-27T06:28:08;98733.59;;;43.10;13.77
54816;BME280;40715;55.752;37.884;2022-09-27T06:30:44;98735.63;;;43.41;12.97
54816;BME280;40715;55.752;37.884;2022-09-27T06:33:14;98742.41;;;43.71;12.80
54816;BME280;40715;55.752;37.884;2022-09-27T06:35:42;98735.81;;;43.87;12.67
54816;BME280;40715;55.752;37.884;2022-09-27T06:38:12;98725.84;;;43.96;12.43
54816;BME280;40715;55.752;37.884;2022-09-27T06:40:42;98739.09;;;43.69;12.63
54816;BME280;40715;55.752;37.884;2022-09-27T06:43:17;98741.22;;;42.93;12.82
54816;BME280;40715;55.752;37.884;2022-09-27T06:45:46;98734.22;;;40.26;13.86
54816;BME280;40715;55.752;37.884;2022-09-27T06:48:14;98726.22;;;39.26;14.68
54816;BME280;40715;55.752;37.884;2022-09-27T06:50:44;98721.84;;;40.12;14.30
54816;BME280;40715;55.752;37.884;2022-09-27T06:53:13;98718.22;;;40.96;14.01
54816;BME280;40715;55.752;37.884;2022-09-27T06:55:40;98723.91;;;40.04;13.75
54816;BME280;40715;55.752;37.884;2022-09-27T06:58:08;98726.28;;;37.40;14.99
54816;BME280;40715;55.752;37.884;2022-09-27T07:00:54;98716.25;;;34.45;16.98
54816;BME280;40715;55.752;37.884;2022-09-27T07:03:22;98712.81;;;32.86;17.90
54816;BME280;40715;55.752;37.884;2022-09-27T07:06:00;98713.97;;;31.25;19.29
54816;BME280;40715;55.752;37.884;2022-09-27T07:08:28;98694.00;;;29.97;20.27
54816;BME280;40715;55.752;37.884;2022-09-27T07:11:03;98725.78;;;28.78;21.91
54816;BME280;40715;55.752;37.884;2022-09-27T07:13:31;98686.97;;;27.02;23.10
54816;BME280;40715;55.752;37.884;2022-09-27T07:16:00;98726.38;;;26.08;24.58
54816;BME280;40715;55.752;37.884;2022-09-27T07:18:28;98713.53;;;25.92;25.31
54816;BME280;40715;55.752;37.884;2022-09-27T07:20:55;98720.34;;;25.78;25.75
54816;BME280;40715;55.752;37.884;2022-09-27T07:23:26;98721.09;;;25.89;26.08
54816;BME280;40715;55.752;37.884;2022-09-27T07:25:53;98723.25;;;28.51;24.91
54816;BME280;40715;55.752;37.884;2022-09-27T07:28:20;98731.34;;;30.41;23.44
54816;BME280;40715;55.752;37.884;2022-09-27T07:30:48;98727.97;;;32.39;21.30
54816;BME280;40715;55.752;37.884;2022-09-27T07:33:15;98743.13;;;34.08;20.05
54816;BME280;40715;55.752;37.884;2022-09-27T07:35:42;98733.34;;;37.11;17.62
54816;BME280;40715;55.752;37.884;2022-09-27T07:38:10;98743.81;;;39.78;15.49
54816;BME280;40715;55.752;37.884;2022-09-27T07:40:40;98723.44;;;40.59;14.59
54816;BME280;40715;55.752;37.884;2022-09-27T07:43:07;98730.72;;;41.26;13.71
54816;BME280;40715;55.752;37.884;2022-09-27T07:45:35;98731.56;;;38.80;14.32
54816;BME280;40715;55.752;37.884;2022-09-27T07:48:12;98735.94;;;35.14;16.45
54816;BME280;40715;55.752;37.884;2022-09-27T07:50:39;98726.41;;;32.29;18.36
54816;BME280;40715;55.752;37.884;2022-09-27T07:53:06;98732.69;;;30.22;20.06
54816;BME280;40715;55.752;37.884;2022-09-27T07:55:33;98718.13;;;28.81;21.49
54816;BME280;40715;55.752;37.884;2022-09-27T07:58:02;98714.06;;;27.53;22.50
54816;BME280;40715;55.752;37.884;2022-09-27T08:00:29;98716.63;;;26.86;23.68
54816;BME280;40715;55.752;37.884;2022-09-27T08:02:56;98711.44;;;26.93;24.03
54816;BME280;40715;55.752;37.884;2022-09-27T08:05:23;98716.09;;;29.94;23.16
54816;BME280;40715;55.752;37.884;2022-09-27T08:07:53;98720.03;;;34.44;19.81
54816;BME280;40715;55.752;37.884;2022-09-27T08:10:22;98724.16;;;35.14;18.10
54816;BME280;40715;55.752;37.884;2022-09-27T08:13:03;98735.56;;;33.97;17.79
54816;BME280;40715;55.752;37.884;2022-09-27T08:15:31;98722.44;;;31.52;19.04
54816;BME280;40715;55.752;37.884;2022-09-27T08:18:01;98717.00;;;29.15;21.13
54816;BME280;40715;55.752;37.884;2022-09-27T08:20:28;98725.56;;;27.64;22.72
54816;BME280;40715;55.752;37.884;2022-09-27T08:22:55;98723.06;;;26.41;23.91
54816;BME280;40715;55.752;37.884;2022-09-27T08:25:22;98718.63;;;25.95;25.12
54816;BME280;40715;55.752;37.884;2022-09-27T08:27:57;98710.81;;;25.56;25.40
54816;BME280;40715;55.752;37.884;2022-09-27T08:30:25;98719.72;;;25.11;26.17
54816;BME280;40715;55.752;37.884;2022-09-27T08:32:57;98704.88;;;25.35;26.49
54816;BME280;40715;55.752;37.884;2022-09-27T08:35:25;98715.69;;;27.46;25.73
54816;BME280;40715;55.752;37.884;2022-09-27T08:37:55;98708.88;;;31.37;22.19
54816;BME280;40715;55.752;37.884;2022-09-27T08:40:23;98708.63;;;35.01;19.43
54816;BME280;40715;55.752;37.884;2022-09-27T08:43:11;98721.69;;;39.61;15.79
54816;BME280;40715;55.752;37.884;2022-09-27T08:48:24;98737.91;;;45.90;11.22
54816;BME280;40715;55.752;37.884;2022-09-27T08:50:53;98741.44;;;47.66;9.54
54816;BME280;40715;55.752;37.884;2022-09-27T08:53:32;98728.56;;;49.02;7.97
54816;BME280;40715;55.752;37.884;2022-09-27T08:56:05;98737.91;;;49.76;7.49
54816;BME280;40715;55.752;37.884;2022-09-27T08:58:35;98733.50;;;49.61;7.16
54816;BME280;40715;55.752;37.884;2022-09-27T09:01:05;98739.78;;;47.84;8.29
54816;BME280;40715;55.752;37.884;2022-09-27T09:03:36;98726.94;;;43.95;9.80
54816;BME280;40715;55.752;37.884;2022-09-27T09:15:09;98710.72;;;28.50;18.91
54816;BME280;40715;55.752;37.884;2022-09-27T09:33:32;98711.81;;;20.90;27.68
54816;BME280;40715;55.752;37.884;2022-09-27T09:36:25;98695.34;;;20.60;28.08
54816;BME280;40715;55.752;37.884;2022-09-27T09:38:52;98701.03;;;20.44;28.69
54816;BME280;40715;55.752;37.884;2022-09-27T09:47:28;98695.72;;;19.49;30.48
54816;BME280;40715;55.752;37.884;2022-09-27T09:50:02;98687.91;;;19.22;30.71
54816;BME280;40715;55.752;37.884;2022-09-27T09:52:39;98689.31;;;19.14;31.40
54816;BME280;40715;55.752;37.884;2022-09-27T09:55:22;98697.56;;;19.11;31.58
54816;BME280;40715;55.752;37.884;2022-09-27T10:00:46;98695.66;;;19.38;31.98
54816;BME280;40715;55.752;37.884;2022-09-27T10:03:16;98700.16;;;19.37;31.94
54816;BME280;40715;55.752;37.884;2022-09-27T10:05:43;98686.75;;;19.50;32.23
54816;BME280;40715;55.752;37.884;2022-09-27T10:08:16;98689.97;;;19.66;32.24
54816;BME280;40715;55.752;37.884;2022-09-27T10:10:44;98681.81;;;19.92;31.87
54816;BME280;40715;55.752;37.884;2022-09-27T10:13:16;98679.72;;;20.20;31.88
54816;BME280;40715;55.752;37.884;2022-09-27T10:15:55;98677.34;;;20.51;31.45
54816;BME280;40715;55.752;37.884;2022-09-27T10:18:25;98686.84;;;20.78;31.05
54816;BME280;40715;55.752;37.884;2022-09-27T10:21:00;98685.03;;;20.78;31.17
54816;BME280;40715;55.752;37.884;2022-09-27T10:23:27;98692.28;;;20.65;31.13
54816;BME280;40715;55.752;37.884;2022-09-27T10:26:03;98671.13;;;20.50;31.29
54816;BME280;40715;55.752;37.884;2022-09-27T10:31:08;98676.94;;;19.86;31.17
54816;BME280;40715;55.752;37.884;2022-09-27T10:33:50;98665.38;;;19.50;31.95
54816;BME280;40715;55.752;37.884;2022-09-27T10:36:29;98666.44;;;19.47;32.21
54816;BME280;40715;55.752;37.884;2022-09-27T10:38:58;98649.75;;;19.33;32.47
54816;BME280;40715;55.752;37.884;2022-09-27T10:41:38;98672.38;;;19.40;32.46
54816;BME280;40715;55.752;37.884;2022-09-27T10:44:28;98660.38;;;19.45;32.48
54816;BME280;40715;55.752;37.884;2022-09-27T10:46:58;98656.72;;;19.46;32.62
54816;BME280;40715;55.752;37.884;2022-09-27T10:49:29;98654.69;;;19.26;32.67
54816;BME280;40715;55.752;37.884;2022-09-27T10:52:00;98663.22;;;18.94;32.94
54816;BME280;40715;55.752;37.884;2022-09-27T10:54:33;98649.59;;;18.60;33.35
54816;BME280;40715;55.752;37.884;2022-09-27T10:57:09;98654.63;;;18.26;33.88
54816;BME280;40715;55.752;37.884;2022-09-27T10:59:50;98662.09;;;18.08;34.23
54816;BME280;40715;55.752;37.884;2022-09-27T11:02:25;98654.06;;;17.95;34.35
54816;BME280;40715;55.752;37.884;2022-09-27T11:07:52;98645.59;;;17.75;34.41
54816;BME280;40715;55.752;37.884;2022-09-27T11:13:17;98645.69;;;17.74;34.71
54816;BME280;40715;55.752;37.884;2022-09-27T11:16:47;98640.59;;;17.84;34.96
54816;BME280;40715;55.752;37.884;2022-09-27T11:20:09;98629.25;;;17.94;34.77
54816;BME280;40715;55.752;37.884;2022-09-27T11:23:03;98632.66;;;18.35;34.44
54816;BME280;40715;55.752;37.884;2022-09-27T11:28:26;98622.19;;;18.32;34.59
54816;BME280;40715;55.752;37.884;2022-09-27T11:31:24;98624.44;;;18.38;34.35
54816;BME280;40715;55.752;37.884;2022-09-27T11:39:42;98627.81;;;17.89;34.54
54816;BME280;40715;55.752;37.884;2022-09-27T11:51:03;98621.59;;;18.16;35.01
54816;BME280;40715;55.752;37.884;2022-09-27T11:56:58;98597.72;;;18.77;34.56
54816;BME280;40715;55.752;37.884;2022-09-27T12:04:40;98605.47;;;18.80;33.85
54816;BME280;40715;55.752;37.884;2022-09-27T12:10:02;98602.59;;;18.83;33.29
54816;BME280;40715;55.752;37.884;2022-09-27T12:12:34;98607.75;;;18.60;33.16
54816;BME280;40715;55.752;37.884;2022-09-27T12:15:10;98609.63;;;18.34;33.72
54816;BME280;40715;55.752;37.884;2022-09-27T12:17:42;98591.03;;;17.81;33.96
54816;BME280;40715;55.752;37.884;2022-09-27T12:20:30;98599.66;;;17.59;34.33
54816;BME280;40715;55.752;37.884;2022-09-27T12:23:10;98596.94;;;17.33;34.33
54816;BME280;40715;55.752;37.884;2022-09-27T12:25:40;98591.84;;;17.16;34.90
54816;BME280;40715;55.752;37.884;2022-09-27T12:28:24;98586.38;;;17.04;34.54
54816;BME280;40715;55.752;37.884;2022-09-27T12:30:57;98582.88;;;17.04;34.40
54816;BME280;40715;55.752;37.884;2022-09-27T12:33:56;98577.97;;;16.83;35.18
54816;BME280;40715;55.752;37.884;2022-09-27T12:36:30;98574.00;;;16.76;35.67
54816;BME280;40715;55.752;37.884;2022-09-27T12:39:05;98576.78;;;16.74;35.72
54816;BME280;40715;55.752;37.884;2022-09-27T12:41:40;98571.63;;;16.71;36.08
54816;BME280;40715;55.752;37.884;2022-09-27T12:44:11;98574.59;;;16.67;35.84
54816;BME280;40715;55.752;37.884;2022-09-27T12:47:06;98573.28;;;16.60;35.77
54816;BME280;40715;55.752;37.884;2022-09-27T12:52:43;98574.72;;;16.51;35.44
54816;BME280;40715;55.752;37.884;2022-09-27T13:09:23;98531.75;;;17.26;35.58
54816;BME280;40715;55.752;37.884;2022-09-27T13:12:12;98564.91;;;17.60;35.34
54816;BME280;40715;55.752;37.884;2022-09-27T13:15:14;98562.50;;;17.83;35.27
54816;BME280;40715;55.752;37.884;2022-09-27T13:25:53;98573.78;;;18.13;34.92
54816;BME280;40715;55.752;37.884;2022-09-27T13:31:07;98568.34;;;17.88;35.59
54816;BME280;40715;55.752;37.884;2022-09-27T13:33:46;98561.59;;;17.70;35.92
54816;BME280;40715;55.752;37.884;2022-09-27T13:36:25;98564.25;;;17.57;36.17
54816;BME280;40715;55.752;37.884;2022-09-27T13:41:40;98558.88;;;17.31;36.90
54816;BME280;40715;55.752;37.884;2022-09-27T13:49:56;98554.03;;;16.83;38.00
54816;BME280;40715;55.752;37.884;2022-09-27T13:52:35;98565.06;;;16.77;38.45
54816;BME280;40715;55.752;37.884;2022-09-27T13:55:36;98564.06;;;16.65;38.76
54816;BME280;40715;55.752;37.884;2022-09-27T13:58:01;98558.00;;;16.49;39.25
54816;BME280;40715;55.752;37.884;2022-09-27T14:00:41;98563.16;;;16.37;39.41
54816;BME280;40715;55.752;37.884;2022-09-27T14:05:53;98555.19;;;16.23;39.89
54816;BME280;40715;55.752;37.884;2022-09-27T14:08:29;98557.75;;;16.10;40.46
54816;BME280;40715;55.752;37.884;2022-09-27T14:10:58;98559.75;;;16.07;40.71
54816;BME280;40715;55.752;37.884;2022-09-27T14:13:26;98552.91;;;16.02;40.94
54816;BME280;40715;55.752;37.884;2022-09-27T14:16:00;98545.69;;;15.90;41.31
54816;BME280;40715;55.752;37.884;2022-09-27T14:18:31;98542.34;;;15.72;41.49
54816;BME280;40715;55.752;37.884;2022-09-27T14:21:15;98543.94;;;15.75;41.67
54816;BME280;40715;55.752;37.884;2022-09-27T14:23:43;98521.84;;;15.60;41.77
54816;BME280;40715;55.752;37.884;2022-09-27T14:26:28;98546.41;;;15.63;42.10
54816;BME280;40715;55.752;37.884;2022-09-27T14:28:55;98551.78;;;15.62;42.21
54816;BME280;40715;55.752;37.884;2022-09-27T14:31:23;98555.53;;;15.59;42.58
54816;BME280;40715;55.752;37.884;2022-09-27T14:34:04;98554.00;;;15.55;42.81
54816;BME280;40715;55.752;37.884;2022-09-27T14:36:33;98557.78;;;15.51;42.77
54816;BME280;40715;55.752;37.884;2022-09-27T14:39:29;98543.44;;;15.39;42.95
54816;BME280;40715;55.752;37.884;2022-09-27T14:41:58;98554.91;;;15.40;43.04
54816;BME280;40715;55.752;37.884;2022-09-27T14:44:26;98555.00;;;15.38;43.29
54816;BME280;40715;55.752;37.884;2022-09-27T14:47:14;98551.22;;;15.42;43.47
54816;BME280;40715;55.752;37.884;2022-09-27T14:50:00;98554.50;;;15.31;44.21
54816;BME280;40715;55.752;37.884;2022-09-27T14:52:31;98553.03;;;15.26;44.17
54816;BME280;40715;55.752;37.884;2022-09-27T14:55:05;98526.88;;;15.19;44.14
54816;BME280;40715;55.752;37.884;2022-09-27T14:57:33;98543.38;;;15.25;44.25
54816;BME280;40715;55.752;37.884;2022-09-27T15:00:15;98532.94;;;15.22;44.86
54816;BME280;40715;55.752;37.884;2022-09-27T15:02:43;98536.56;;;15.21;44.75
54816;BME280;40715;55.752;37.884;2022-09-27T15:05:17;98518.00;;;15.05;44.99
54816;BME280;40715;55.752;37.884;2022-09-27T15:07:46;98534.53;;;15.10;45.14
54816;BME280;40715;55.752;37.884;2022-09-27T15:10:21;98504.19;;;14.83;45.38
54816;BME280;40715;55.752;37.884;2022-09-27T15:12:50;98531.72;;;14.97;45.66
54816;BME280;40715;55.752;37.884;2022-09-27T15:15:31;98529.03;;;14.82;46.20
54816;BME280;40715;55.752;37.884;2022-09-27T15:18:00;98524.78;;;14.64;46.15
54816;BME280;40715;55.752;37.884;2022-09-27T15:20:28;98535.50;;;14.61;46.46
54816;BME280;40715;55.752;37.884;2022-09-27T15:23:03;98536.84;;;14.52;46.70
54816;BME280;40715;55.752;37.884;2022-09-27T15:28:29;98529.25;;;14.46;47.11
54816;BME280;40715;55.752;37.884;2022-09-27T15:30:57;98535.75;;;14.40;47.56
54816;BME280;40715;55.752;37.884;2022-09-27T15:33:27;98517.47;;;14.36;47.77
54816;BME280;40715;55.752;37.884;2022-09-27T15:35:59;98527.81;;;14.40;47.83
54816;BME280;40715;55.752;37.884;2022-09-27T15:38:33;98524.41;;;14.38;47.94
54816;BME280;40715;55.752;37.884;2022-09-27T15:41:06;98526.19;;;14.38;48.00
54816;BME280;40715;55.752;37.884;2022-09-27T15:43:51;98484.81;;;14.19;48.78
54816;BME280;40715;55.752;37.884;2022-09-27T15:51:47;98509.19;;;14.26;48.84
54816;BME280;40715;55.752;37.884;2022-09-27T15:54:23;98489.94;;;14.22;48.93
54816;BME280;40715;55.752;37.884;2022-09-27T15:56:51;98495.94;;;14.26;49.15
54816;BME280;40715;55.752;37.884;2022-09-27T15:59:23;98493.97;;;14.29;49.25
54816;BME280;40715;55.752;37.884;2022-09-27T16:01:57;98497.66;;;14.27;49.29
54816;BME280;40715;55.752;37.884;2022-09-27T16:04:25;98479.69;;;14.16;49.62
54816;BME280;40715;55.752;37.884;2022-09-27T16:06:53;98496.38;;;14.18;49.58
54816;BME280;40715;55.752;37.884;2022-09-27T16:09:20;98460.63;;;13.93;49.96